createdAt,value
2018-05-11T00:00:41.654Z,91.40
2018-05-11T00:03:09.500Z,91.40
2018-05-11T00:05:37.071Z,91.40
2018-05-11T00:08:04.633Z,91.40
2018-05-11T00:10:32.906Z,91.00
2018-05-11T00:13:00.701Z,91.20
2018-05-11T00:15:28.219Z,91.20
2018-05-11T00:17:55.759Z,91.20
2018-05-11T00:20:23.273Z,91.20
2018-05-11T00:22:50.803Z,90.70
2018-05-11T00:25:20.039Z,90.50
2018-05-11T00:27:47.659Z,90.60
2018-05-11T00:30:17.000Z,90.60
2018-05-11T00:32:45.266Z,90.30
2018-05-11T00:35:12.788Z,90.50
2018-05-11T00:37:40.323Z,90.20
2018-05-11T00:40:08.552Z,90.50
2018-05-11T00:42:36.762Z,90.30
2018-05-11T00:45:05.084Z,90.10
2018-05-11T00:47:32.603Z,90.10
2018-05-11T00:50:00.120Z,90.10
2018-05-11T00:52:27.856Z,90.10
2018-05-11T00:54:56.145Z,90.20
2018-05-11T00:57:23.658Z,90.20
2018-05-11T00:59:51.190Z,90.20
2018-05-11T01:02:18.748Z,90.20
2018-05-11T01:04:46.269Z,90.00
2018-05-11T01:07:14.099Z,90.00
2018-05-11T01:09:41.755Z,89.80
2018-05-11T01:12:11.233Z,89.70
2018-05-11T01:14:38.767Z,90.00
2018-05-11T01:17:06.351Z,90.10
2018-05-11T01:19:33.903Z,89.90
2018-05-11T01:22:01.736Z,90.00
2018-05-11T01:24:29.270Z,90.00
2018-05-11T01:26:56.925Z,89.90
2018-05-11T01:29:24.469Z,89.70
2018-05-11T01:31:51.970Z,89.70
2018-05-11T01:34:19.768Z,89.30
2018-05-11T01:36:48.361Z,88.80
2018-05-11T01:39:16.881Z,88.70
2018-05-11T01:41:44.436Z,88.90
2018-05-11T01:44:12.000Z,88.60
2018-05-11T01:46:39.638Z,89.00
2018-05-11T01:49:07.477Z,88.70
2018-05-11T01:51:36.778Z,88.60
2018-05-11T01:54:05.070Z,88.70
2018-05-11T01:56:33.480Z,88.20
2018-05-11T01:59:01.135Z,88.20
2018-05-11T02:01:29.340Z,88.50
2018-05-11T02:03:56.844Z,87.90
2018-05-11T02:06:24.469Z,88.10
2018-05-11T02:08:52.091Z,87.90
2018-05-11T02:11:19.693Z,88.20
2018-05-11T02:13:48.176Z,88.70
2018-05-11T02:16:17.229Z,88.10
2018-05-11T02:18:44.811Z,88.10
2018-05-11T02:21:12.386Z,88.50
2018-05-11T02:23:39.935Z,88.20
2018-05-11T02:26:07.610Z,88.00
2018-05-11T02:28:35.303Z,88.30
2018-05-11T02:31:02.841Z,88.30
2018-05-11T02:33:30.353Z,88.30
2018-05-11T02:35:57.974Z,88.20
2018-05-11T02:38:25.510Z,88.30
2018-05-11T02:40:53.071Z,88.10
2018-05-11T02:43:20.582Z,88.20
2018-05-11T02:45:48.178Z,88.30
2018-05-11T02:48:15.789Z,88.10
2018-05-11T02:50:43.510Z,88.60
2018-05-11T02:53:11.254Z,88.90
2018-05-11T02:55:39.733Z,88.50
2018-05-11T02:58:07.300Z,88.90
2018-05-11T03:00:34.861Z,89.40
2018-05-11T03:03:02.553Z,89.20
2018-05-11T03:05:30.504Z,89.70
2018-05-11T03:07:58.022Z,90.00
2018-05-11T03:10:25.776Z,89.40
2018-05-11T03:12:55.012Z,90.00
2018-05-11T03:15:22.539Z,89.70
2018-05-11T03:17:50.843Z,89.50
2018-05-11T03:20:19.304Z,89.40
2018-05-11T03:22:46.824Z,90.00
2018-05-11T03:25:15.248Z,89.50
2018-05-11T03:27:43.200Z,89.50
2018-05-11T03:30:10.774Z,90.00
2018-05-11T03:32:39.148Z,89.20
2018-05-11T03:35:06.690Z,89.50
2018-05-11T03:37:34.895Z,89.20
2018-05-11T03:40:02.573Z,89.60
2018-05-11T03:42:30.166Z,89.00
2018-05-11T03:44:58.124Z,88.30
2018-05-11T03:47:25.692Z,88.40
2018-05-11T03:49:53.831Z,88.80
2018-05-11T03:52:21.444Z,89.10
2018-05-11T03:54:49.078Z,88.80
2018-05-11T03:57:16.611Z,88.50
2018-05-11T03:59:45.395Z,88.50
2018-05-11T04:05:29.479Z,88.80
2018-05-11T04:08:08.891Z,88.40
2018-05-11T04:10:40.756Z,88.50
2018-05-11T04:13:08.349Z,88.30
2018-05-11T04:15:37.651Z,88.00
2018-05-11T04:18:05.971Z,87.90
2018-05-11T04:20:33.549Z,88.20
2018-05-11T04:23:02.109Z,87.50
2018-05-11T04:25:29.627Z,87.40
2018-05-11T04:27:57.219Z,87.30
2018-05-11T04:30:24.769Z,87.20
2018-05-11T04:32:52.333Z,86.60
2018-05-11T04:35:19.844Z,86.80
2018-05-11T04:37:47.521Z,86.90
2018-05-11T04:40:15.161Z,86.50
2018-05-11T04:42:42.733Z,86.50
2018-05-11T04:45:10.301Z,86.40
2018-05-11T04:47:38.527Z,86.30
2018-05-11T04:50:06.361Z,86.30
2018-05-11T04:52:34.450Z,86.00
2018-05-11T04:55:01.973Z,85.60
2018-05-11T04:57:30.196Z,85.40
2018-05-11T04:59:58.363Z,85.50
2018-05-11T05:02:28.977Z,84.90
2018-05-11T05:04:57.571Z,85.40
2018-05-11T05:07:25.353Z,85.60
2018-05-11T05:09:53.771Z,85.70
2018-05-11T05:12:21.354Z,85.70
2018-05-11T05:14:49.234Z,85.60
2018-05-11T05:17:16.899Z,85.60
2018-05-11T05:19:44.450Z,85.30
2018-05-11T05:22:11.975Z,84.70
2018-05-11T05:24:40.592Z,84.10
2018-05-11T05:27:08.851Z,84.10
2018-05-11T05:29:36.372Z,84.30
2018-05-11T05:32:03.969Z,84.30
2018-05-11T05:34:31.555Z,84.10
2018-05-11T05:37:00.117Z,83.80
2018-05-11T05:39:27.668Z,83.80
2018-05-11T05:41:55.392Z,83.50
2018-05-11T05:44:22.946Z,83.90
2018-05-11T05:46:50.494Z,83.20
2018-05-11T05:49:18.036Z,82.10
2018-05-11T05:51:45.608Z,82.90
2018-05-11T05:54:13.174Z,81.90
2018-05-11T05:56:40.696Z,81.90
2018-05-11T05:59:08.266Z,82.50
2018-05-11T06:01:35.874Z,82.50
2018-05-11T06:04:03.391Z,82.40
2018-05-11T06:06:30.976Z,82.90
2018-05-11T06:08:58.496Z,82.90
2018-05-11T06:11:26.056Z,82.70
2018-05-11T06:13:54.259Z,83.50
2018-05-11T06:16:21.996Z,83.70
2018-05-11T06:18:50.380Z,83.30
2018-05-11T06:21:17.968Z,83.00
2018-05-11T06:23:45.592Z,82.70
2018-05-11T06:26:14.236Z,81.70
2018-05-11T06:28:41.768Z,81.50
2018-05-11T06:31:09.273Z,81.60
2018-05-11T06:33:37.182Z,81.40
2018-05-11T06:36:05.338Z,81.30
2018-05-11T06:38:33.400Z,80.40
2018-05-11T06:41:00.979Z,80.90
2018-05-11T06:43:28.588Z,80.50
2018-05-11T06:45:56.669Z,80.50
2018-05-11T06:48:25.011Z,80.40
2018-05-11T06:50:52.814Z,79.70
2018-05-11T06:53:21.153Z,78.80
2018-05-11T06:55:49.523Z,78.70
2018-05-11T06:58:17.992Z,78.80
2018-05-11T07:00:45.772Z,78.80
2018-05-11T07:03:13.353Z,78.20
2018-05-11T07:05:40.879Z,77.90
2018-05-11T07:08:08.858Z,77.10
2018-05-11T07:10:36.386Z,76.50
2018-05-11T07:13:03.982Z,76.20
2018-05-11T07:15:32.419Z,75.70
2018-05-11T07:18:00.757Z,76.00
2018-05-11T07:20:28.309Z,75.90
2018-05-11T07:22:56.082Z,75.70
2018-05-11T07:25:24.520Z,75.60
2018-05-11T07:27:52.822Z,75.20
2018-05-11T07:30:20.590Z,75.20
2018-05-11T07:32:48.144Z,74.80
2018-05-11T07:35:15.713Z,75.10
2018-05-11T07:37:43.651Z,75.00
2018-05-11T07:40:11.196Z,74.80
2018-05-11T07:42:43.686Z,74.60
2018-05-11T07:45:13.543Z,73.20
2018-05-11T07:47:41.231Z,73.20
2018-05-11T07:50:08.872Z,72.80
2018-05-11T07:52:36.380Z,72.50
2018-05-11T07:55:03.938Z,72.60
2018-05-11T07:57:32.249Z,72.50
2018-05-11T07:59:59.930Z,72.60
2018-05-11T08:02:27.554Z,73.00
2018-05-11T08:04:56.512Z,72.90
2018-05-11T08:07:24.328Z,73.20
2018-05-11T08:09:51.894Z,73.20
2018-05-11T08:12:21.624Z,73.10
2018-05-11T08:14:49.441Z,73.30
2018-05-11T08:17:17.680Z,73.40
2018-05-11T08:19:45.211Z,73.30
2018-05-11T08:22:13.057Z,72.90
2018-05-11T08:24:40.882Z,73.10
2018-05-11T08:27:09.213Z,73.30
2018-05-11T08:29:36.944Z,73.20
2018-05-11T08:32:06.276Z,71.80
2018-05-11T08:34:34.170Z,72.50
2018-05-11T08:37:02.408Z,70.90
2018-05-11T08:39:30.199Z,70.20
2018-05-11T08:41:57.768Z,70.10
2018-05-11T08:44:25.292Z,70.10
2018-05-11T08:46:52.928Z,69.70
2018-05-11T08:49:21.432Z,69.40
2018-05-11T08:51:49.592Z,68.90
2018-05-11T08:54:18.642Z,68.30
2018-05-11T08:56:46.226Z,67.50
2018-05-11T08:59:14.764Z,67.00
2018-05-11T09:01:42.370Z,67.10
2018-05-11T09:04:09.966Z,66.10
2018-05-11T09:06:37.525Z,66.90
2018-05-11T09:09:06.101Z,68.10
2018-05-11T09:11:33.837Z,68.10
2018-05-11T09:14:01.394Z,68.70
2018-05-11T09:16:29.463Z,68.60
2018-05-11T09:18:57.381Z,68.80
2018-05-11T09:21:25.207Z,69.20
2018-05-11T09:23:53.579Z,69.50
2018-05-11T09:26:25.613Z,69.50
2018-05-11T09:29:00.277Z,69.10
2018-05-11T09:31:37.213Z,69.40
2018-05-11T09:34:06.038Z,69.90
2018-05-11T09:36:34.707Z,68.80
2018-05-11T09:39:03.333Z,67.90
2018-05-11T09:41:31.046Z,67.90
2018-05-11T09:43:59.090Z,67.30
2018-05-11T09:46:26.832Z,66.40
2018-05-11T09:48:55.217Z,63.30
2018-05-11T09:51:22.941Z,63.30
2018-05-11T09:53:50.492Z,61.50
2018-05-11T09:56:19.396Z,60.50
2018-05-11T09:58:47.006Z,60.70
2018-05-11T10:01:14.548Z,59.70
2018-05-11T10:03:42.729Z,59.10
2018-05-11T10:06:12.922Z,57.20
2018-05-11T10:08:40.456Z,57.20
2018-05-11T10:11:08.022Z,56.60
2018-05-11T10:13:37.509Z,57.50
2018-05-11T10:16:05.141Z,57.70
2018-05-11T10:18:32.847Z,58.30
2018-05-11T10:21:00.504Z,58.20
2018-05-11T10:23:28.974Z,58.90
2018-05-11T10:25:56.589Z,59.30
2018-05-11T10:28:25.030Z,58.60
2018-05-11T10:30:53.815Z,58.70
2018-05-11T10:33:21.658Z,58.90
2018-05-11T10:35:50.059Z,58.70
2018-05-11T10:38:18.446Z,59.20
2018-05-11T10:40:45.998Z,59.30
2018-05-11T10:43:13.535Z,59.20
2018-05-11T10:45:41.070Z,59.50
2018-05-11T10:48:09.327Z,59.00
2018-05-11T10:50:36.871Z,58.90
2018-05-11T10:53:05.051Z,58.90
2018-05-11T10:55:32.611Z,59.00
2018-05-11T10:58:00.818Z,58.60
2018-05-11T11:00:29.349Z,59.10
2018-05-11T11:02:57.325Z,59.10
2018-05-11T11:05:25.206Z,58.80
2018-05-11T11:07:52.747Z,58.70
2018-05-11T11:10:21.287Z,58.60
2018-05-11T11:12:50.125Z,58.50
2018-05-11T11:15:18.017Z,59.10
2018-05-11T11:17:46.657Z,58.60
2018-05-11T11:20:14.330Z,58.60
2018-05-11T11:22:41.977Z,59.20
2018-05-11T11:25:09.694Z,59.80
2018-05-11T11:27:37.249Z,60.50
2018-05-11T11:30:04.861Z,60.80
2018-05-11T11:32:32.892Z,60.80
2018-05-11T11:35:00.581Z,61.60
2018-05-11T11:37:29.020Z,60.30
2018-05-11T11:39:56.797Z,60.30
2018-05-11T11:42:25.135Z,59.90
2018-05-11T11:44:52.896Z,59.90
2018-05-11T11:47:20.522Z,59.50
2018-05-11T11:49:48.381Z,60.00
2018-05-11T11:52:16.164Z,59.80
2018-05-11T11:54:43.966Z,60.00
2018-05-11T11:57:11.832Z,60.80
2018-05-11T11:59:39.410Z,60.90
2018-05-11T12:02:06.988Z,61.00
2018-05-11T12:04:35.318Z,61.20
2018-05-11T12:07:02.834Z,61.10
2018-05-11T12:09:30.448Z,61.50
2018-05-11T12:11:58.264Z,61.60
2018-05-11T12:14:26.219Z,62.00
2018-05-11T12:16:53.895Z,62.10
2018-05-11T12:19:21.425Z,62.50
2018-05-11T12:21:49.005Z,62.60
2018-05-11T12:24:17.294Z,63.30
2018-05-11T12:26:45.554Z,63.30
2018-05-11T12:29:13.098Z,63.50
2018-05-11T12:31:40.894Z,63.60
2018-05-11T12:34:08.463Z,63.80
2018-05-11T12:36:36.796Z,63.60
2018-05-11T12:39:04.312Z,63.60
2018-05-11T12:41:33.262Z,63.80
2018-05-11T12:44:00.824Z,63.80
2018-05-11T12:46:28.473Z,64.90
2018-05-11T12:48:56.675Z,66.30
2018-05-11T12:51:24.970Z,66.90
2018-05-11T12:53:54.004Z,66.90
2018-05-11T12:56:21.566Z,66.90
2018-05-11T12:58:49.757Z,66.90
2018-05-11T13:01:17.295Z,67.10
2018-05-11T13:03:45.330Z,66.50
2018-05-11T13:06:13.373Z,66.40
2018-05-11T13:08:42.449Z,66.10
2018-05-11T13:11:10.011Z,66.90
2018-05-11T13:13:37.919Z,67.60
2018-05-11T13:16:06.870Z,67.50
2018-05-11T13:18:34.518Z,67.50
2018-05-11T13:21:02.078Z,67.20
2018-05-11T13:23:29.632Z,66.60
2018-05-11T13:25:57.161Z,66.70
2018-05-11T13:28:26.362Z,66.40
2018-05-11T13:30:54.666Z,66.20
2018-05-11T13:33:22.221Z,66.10
2018-05-11T13:35:49.853Z,66.00
2018-05-11T13:38:18.255Z,64.80
2018-05-11T13:40:46.148Z,64.90
2018-05-11T13:43:13.726Z,64.70
2018-05-11T13:45:42.385Z,64.90
2018-05-11T13:48:11.194Z,66.50
2018-05-11T13:50:39.190Z,67.00
2018-05-11T13:53:06.834Z,67.70
2018-05-11T13:55:34.394Z,67.30
2018-05-11T13:58:02.089Z,67.10
2018-05-11T14:00:29.649Z,67.00
2018-05-11T14:02:57.209Z,67.30
2018-05-11T14:05:24.768Z,67.70
2018-05-11T14:07:52.363Z,66.70
2018-05-11T14:10:20.035Z,67.20
2018-05-11T14:12:47.646Z,66.70
2018-05-11T14:15:15.235Z,67.00
2018-05-11T14:17:43.373Z,66.30
2018-05-11T14:20:10.917Z,66.20
2018-05-11T14:22:38.542Z,66.10
2018-05-11T14:25:06.138Z,65.80
2018-05-11T14:27:33.662Z,65.40
2018-05-11T14:30:01.426Z,64.90
2018-05-11T14:32:28.971Z,64.50
2018-05-11T14:34:56.544Z,63.70
2018-05-11T14:37:24.269Z,62.40
2018-05-11T14:39:51.963Z,61.40
2018-05-11T14:42:20.350Z,61.70
2018-05-11T14:44:47.908Z,61.70
2018-05-11T14:47:15.643Z,61.60
2018-05-11T14:49:44.166Z,61.90
2018-05-11T14:52:11.703Z,61.90
2018-05-11T14:54:40.084Z,61.50
2018-05-11T14:57:08.611Z,62.40
2018-05-11T14:59:37.084Z,62.50
2018-05-11T15:02:11.414Z,62.90
2018-05-11T15:04:38.964Z,63.60
2018-05-11T15:07:06.552Z,64.40
2018-05-11T15:09:34.095Z,65.10
2018-05-11T15:12:01.661Z,65.10
2018-05-11T15:14:29.506Z,65.90
2018-05-11T15:16:57.311Z,67.40
2018-05-11T15:19:24.873Z,67.10
2018-05-11T15:21:52.527Z,67.30
2018-05-11T15:24:20.420Z,66.80
2018-05-11T15:26:49.049Z,67.30
2018-05-11T15:29:16.673Z,67.30
2018-05-11T15:31:44.991Z,67.70
2018-05-11T15:34:12.561Z,67.70
2018-05-11T15:36:40.135Z,67.40
2018-05-11T15:39:07.636Z,67.10
2018-05-11T15:41:35.432Z,67.20
2018-05-11T15:44:02.983Z,67.10
2018-05-11T15:46:30.721Z,67.20
2018-05-11T15:48:58.336Z,67.30
2018-05-11T15:51:26.178Z,67.40
2018-05-11T15:53:53.881Z,67.90
2018-05-11T15:56:21.524Z,67.70
2018-05-11T15:58:49.558Z,68.30
2018-05-11T16:01:17.226Z,68.50
2018-05-11T16:03:45.051Z,69.00
2018-05-11T16:06:12.770Z,68.90
2018-05-11T16:08:40.352Z,69.70
2018-05-11T16:11:07.895Z,69.90
2018-05-11T16:13:35.534Z,70.20
2018-05-11T16:16:03.186Z,70.80
2018-05-11T16:18:30.818Z,71.70
2018-05-11T16:20:58.794Z,72.60
2018-05-11T16:23:26.365Z,73.00
2018-05-11T16:25:53.973Z,73.50
2018-05-11T16:28:21.564Z,74.20
2018-05-11T16:30:49.093Z,74.70
2018-05-11T16:33:16.687Z,75.40
2018-05-11T16:35:45.586Z,75.50
2018-05-11T16:38:13.274Z,76.20
2018-05-11T16:40:40.823Z,77.40
2018-05-11T16:43:08.534Z,76.90
2018-05-11T16:45:36.664Z,77.90
2018-05-11T16:48:04.472Z,78.50
2018-05-11T16:50:32.248Z,78.80
2018-05-11T16:52:59.794Z,79.10
2018-05-11T16:55:27.368Z,79.10
2018-05-11T16:57:55.278Z,78.90
2018-05-11T17:00:23.021Z,77.90
2018-05-11T17:02:50.654Z,78.60
2018-05-11T17:05:19.925Z,78.90
2018-05-11T17:07:47.685Z,79.00
2018-05-11T17:10:15.353Z,78.90
2018-05-11T17:12:43.218Z,78.30
2018-05-11T17:15:11.561Z,79.00
2018-05-11T17:17:39.387Z,79.00
2018-05-11T17:20:07.051Z,79.60
2018-05-11T17:22:34.709Z,80.00
2018-05-11T17:25:02.406Z,80.60
2018-05-11T17:27:30.861Z,80.90
2018-05-11T17:29:58.782Z,81.20
2018-05-11T17:32:26.316Z,81.20
2018-05-11T17:34:54.051Z,81.50
2018-05-11T17:37:21.710Z,81.80
2018-05-11T17:39:49.327Z,82.00
2018-05-11T17:42:16.978Z,82.00
2018-05-11T17:44:44.574Z,81.90
2018-05-11T17:47:12.177Z,81.70
2018-05-11T17:49:39.790Z,81.20
2018-05-11T17:52:07.605Z,81.20
2018-05-11T17:54:35.641Z,81.60
2018-05-11T17:57:03.365Z,82.20
2018-05-11T17:59:31.062Z,82.10
2018-05-11T18:01:59.574Z,82.40
2018-05-11T18:04:27.195Z,82.50
2018-05-11T18:06:55.613Z,82.60
2018-05-11T18:09:23.281Z,82.60
2018-05-11T18:11:51.236Z,82.80
2018-05-11T18:14:18.819Z,82.90
2018-05-11T18:16:46.570Z,83.20
2018-05-11T18:19:14.244Z,83.40
2018-05-11T18:21:41.807Z,83.50
2018-05-11T18:24:09.338Z,84.10
2018-05-11T18:26:36.952Z,84.80
2018-05-11T18:29:05.373Z,86.50
2018-05-11T18:31:32.976Z,86.50
2018-05-11T18:34:00.800Z,86.90
2018-05-11T18:36:28.463Z,87.60
2018-05-11T18:38:56.764Z,88.10
2018-05-11T18:41:24.562Z,88.10
2018-05-11T18:43:53.390Z,89.60
2018-05-11T18:46:20.957Z,89.10
2018-05-11T18:48:48.520Z,89.30
2018-05-11T18:51:16.341Z,89.90
2018-05-11T18:53:44.350Z,90.10
2018-05-11T18:56:11.643Z,90.30
2018-05-11T18:58:39.177Z,90.30
2018-05-11T19:01:07.054Z,90.60
2018-05-11T19:03:35.980Z,90.60
2018-05-11T19:06:03.701Z,91.00
2018-05-11T19:08:31.236Z,91.30
2018-05-11T19:10:59.869Z,91.60
2018-05-11T19:13:28.419Z,91.60
2018-05-11T19:15:56.725Z,91.60
2018-05-11T19:18:24.275Z,91.90
2018-05-11T19:20:52.234Z,92.00
2018-05-11T19:23:20.006Z,92.10
2018-05-11T19:25:47.873Z,92.30
2018-05-11T19:28:15.414Z,92.60
2018-05-11T19:30:43.102Z,92.70
2018-05-11T19:33:11.174Z,92.90
2018-05-11T19:35:38.793Z,93.00
2018-05-11T19:38:06.458Z,93.10
2018-05-11T19:40:34.767Z,93.40
2018-05-11T19:43:02.333Z,93.30
2018-05-11T19:45:30.642Z,93.40
2018-05-11T19:47:58.360Z,93.40
2018-05-11T19:50:26.121Z,93.50
2018-05-11T19:52:54.488Z,93.60
2018-05-11T19:55:22.507Z,93.60
2018-05-11T19:57:50.967Z,93.70
2018-05-11T20:00:18.556Z,93.60
2018-05-11T20:02:46.218Z,93.70
2018-05-11T20:05:13.783Z,93.70
2018-05-11T20:07:41.352Z,93.70
2018-05-11T20:10:10.748Z,93.80
2018-05-11T20:12:38.770Z,93.80
2018-05-11T20:15:06.428Z,93.90
2018-05-11T20:17:34.199Z,93.80
2018-05-11T20:20:01.755Z,94.00
2018-05-11T20:22:29.379Z,94.10
2018-05-11T20:24:57.029Z,94.20
2018-05-11T20:27:25.790Z,94.20
2018-05-11T20:29:53.432Z,94.30
2018-05-11T20:32:21.042Z,94.40
2018-05-11T20:34:48.559Z,94.40
2018-05-11T20:37:16.129Z,94.30
2018-05-11T20:39:44.629Z,94.30
2018-05-11T20:42:12.206Z,94.40
2018-05-11T20:44:39.916Z,94.40
2018-05-11T20:47:07.499Z,94.40
2018-05-11T20:49:35.123Z,94.50
2018-05-11T20:52:03.442Z,94.60
2018-05-11T20:54:30.971Z,94.80
2018-05-11T20:56:59.963Z,94.80
2018-05-11T20:59:27.541Z,94.90
2018-05-11T21:01:55.570Z,94.90
2018-05-11T21:04:23.485Z,95.10
2018-05-11T21:06:51.047Z,95.30
2018-05-11T21:09:18.743Z,95.40
2018-05-11T21:11:46.364Z,95.60
2018-05-11T21:14:13.965Z,95.80
2018-05-11T21:16:42.268Z,95.80
2018-05-11T21:19:10.622Z,96.00
2018-05-11T21:21:38.162Z,96.10
2018-05-11T21:24:05.813Z,96.10
2018-05-11T21:26:33.781Z,96.90
2018-05-11T21:29:01.813Z,97.10
2018-05-11T21:31:29.622Z,97.20
2018-05-11T21:33:57.226Z,97.40
2018-05-11T21:36:24.779Z,97.50
2018-05-11T21:38:53.145Z,97.60
2018-05-11T21:41:20.762Z,97.70
2018-05-11T21:43:48.496Z,97.80
2018-05-11T21:46:16.051Z,97.90
2018-05-11T21:48:43.895Z,97.90
2018-05-11T21:51:11.701Z,98.00
2018-05-11T21:53:39.549Z,98.10
2018-05-11T21:56:07.183Z,98.10
2018-05-11T21:58:34.828Z,98.20
2018-05-11T22:01:02.994Z,98.20
2018-05-11T22:03:30.603Z,98.30
2018-05-11T22:05:58.260Z,98.50
2018-05-11T22:08:26.450Z,98.50
2018-05-11T22:10:53.995Z,98.50
2018-05-11T22:13:21.555Z,98.60
2018-05-11T22:15:49.467Z,98.80
2018-05-11T22:18:17.036Z,99.20
2018-05-11T22:20:44.639Z,99.20
2018-05-11T22:23:12.146Z,99.30
2018-05-11T22:25:40.958Z,99.50
2018-05-11T22:28:09.167Z,99.50
2018-05-11T22:30:36.740Z,99.70
2018-05-11T22:33:04.318Z,99.90
2018-05-11T22:35:31.855Z,99.90
2018-05-11T22:37:59.476Z,99.90
2018-05-11T22:40:27.001Z,99.90
2018-05-11T22:42:54.633Z,99.90
2018-05-11T22:45:22.212Z,99.90
2018-05-11T22:47:49.881Z,99.90
2018-05-11T22:50:17.419Z,99.90
2018-05-11T22:52:44.965Z,99.90
2018-05-11T22:55:12.529Z,99.90
2018-05-11T22:57:40.986Z,99.90
2018-05-11T23:00:08.537Z,99.90
2018-05-11T23:02:36.312Z,99.90
2018-05-11T23:05:04.161Z,99.90
2018-05-11T23:07:32.753Z,99.90
2018-05-11T23:10:00.499Z,99.90
2018-05-11T23:12:27.968Z,99.90
2018-05-11T23:14:55.522Z,99.90
2018-05-11T23:17:23.292Z,99.90
2018-05-11T23:19:51.118Z,99.90
2018-05-11T23:22:19.376Z,99.90
2018-05-11T23:24:47.018Z,99.90
2018-05-11T23:27:15.827Z,99.90
2018-05-11T23:29:43.621Z,99.90
2018-05-11T23:32:11.656Z,99.90
2018-05-11T23:34:39.665Z,99.90
2018-05-11T23:37:07.434Z,99.90
2018-05-11T23:39:34.966Z,99.90
2018-05-11T23:42:02.502Z,99.90
2018-05-11T23:44:30.127Z,99.90
2018-05-11T23:46:57.684Z,99.90
2018-05-11T23:49:25.211Z,99.90
2018-05-11T23:51:53.555Z,99.90
2018-05-11T23:54:21.781Z,99.90
2018-05-11T23:56:50.324Z,99.90
2018-05-11T23:59:18.862Z,99.90
